Time;durP1;ratioP1;P1;durP2;ratioP2;P2;SDS_P1;SDS_P2;PMS_P1;PMS_P2;Temp;Humidity;BMP_temperature;BMP_pressure;BME280_temperature;BME280_humidity;BME280_pressure;Samples;Min_cycle;Max_cycle;Signal;HPM_P1;HPM_P2
2023/11/21 00:01:33;;;;;;;4.83;1.63;;;9.30;78.30;;;;;;4833590;29;20102;-90
2023/11/21 00:04:01;;;;;;;8.75;1.58;;;9.30;78.30;;;;;;4828277;29;20061;-90
2023/11/21 00:06:30;;;;;;;5.07;1.80;;;9.30;77.70;;;;;;4836190;29;20520;-90
2023/11/21 00:08:57;;;;;;;6.80;1.50;;;9.30;77.60;;;;;;4820606;29;20076;-90
2023/11/21 00:11:25;;;;;;;4.65;1.50;;;9.30;77.70;;;;;;4822173;29;20057;-90
2023/11/21 00:13:52;;;;;;;4.33;1.30;;;9.40;77.30;;;;;;4830100;29;20049;-90
2023/11/21 00:16:22;;;;;;;6.35;1.60;;;9.40;77.10;;;;;;4832638;29;20085;-90
2023/11/21 00:18:49;;;;;;;4.72;1.45;;;9.40;77.00;;;;;;4839736;29;20045;-90
2023/11/21 00:21:16;;;;;;;4.93;1.67;;;9.50;77.10;;;;;;4838073;29;20046;-90
2023/11/21 00:23:43;;;;;;;6.22;1.75;;;9.40;76.60;;;;;;4827647;29;20049;-90
2023/11/21 00:26:10;;;;;;;4.57;1.70;;;9.50;76.40;;;;;;4812023;29;20050;-90
2023/11/21 00:28:38;;;;;;;7.60;1.30;;;9.40;76.70;;;;;;4837103;29;20169;-90
2023/11/21 00:31:05;;;;;;;5.30;1.50;;;9.40;76.50;;;;;;4839241;29;20080;-91
2023/11/21 00:33:33;;;;;;;4.07;1.60;;;9.40;76.40;;;;;;4827130;29;20077;-90
2023/11/21 00:36:00;;;;;;;4.47;1.73;;;9.50;76.30;;;;;;4813268;29;20072;-90
2023/11/21 00:38:27;;;;;;;4.60;1.67;;;9.50;76.70;;;;;;4827096;29;20512;-90
2023/11/21 00:40:56;;;;;;;6.32;2.03;;;9.40;76.70;;;;;;4842642;29;20045;-90
2023/11/21 00:43:24;;;;;;;6.65;1.73;;;9.50;77.00;;;;;;4836901;29;20045;-90
2023/11/21 00:45:51;;;;;;;5.40;1.73;;;9.50;76.70;;;;;;4819344;29;20069;-90
2023/11/21 00:48:18;;;;;;;5.18;1.80;;;9.50;76.90;;;;;;4839175;29;20638;-90
2023/11/21 00:50:46;;;;;;;7.87;2.07;;;9.50;77.30;;;;;;4830333;29;20561;-91
2023/11/21 00:53:13;;;;;;;4.47;1.58;;;9.50;77.60;;;;;;4829156;29;20576;-90
2023/11/21 00:55:40;;;;;;;5.50;1.75;;;9.40;77.90;;;;;;4844281;29;20042;-90
2023/11/21 00:58:07;;;;;;;6.53;1.88;;;9.40;78.20;;;;;;4823566;29;20049;-90
2023/11/21 01:00:34;;;;;;;6.30;2.10;;;9.40;78.60;;;;;;4842692;29;20098;-90
2023/11/21 01:03:02;;;;;;;4.87;1.70;;;9.40;78.60;;;;;;4835312;29;20118;-90
2023/11/21 01:05:29;;;;;;;5.28;2.10;;;9.30;78.90;;;;;;4835714;29;20062;-90
2023/11/21 01:07:56;;;;;;;4.20;1.83;;;9.40;78.60;;;;;;4839068;29;20052;-90
2023/11/21 01:10:24;;;;;;;5.78;1.98;;;9.40;78.80;;;;;;4841288;29;20053;-90
2023/11/21 01:12:51;;;;;;;7.75;1.80;;;9.30;78.60;;;;;;4841282;29;20466;-90
2023/11/21 01:15:21;;;;;;;4.57;1.57;;;9.30;78.30;;;;;;4840213;29;20041;-90
2023/11/21 01:17:48;;;;;;;5.40;1.60;;;9.30;78.50;;;;;;4831533;29;20046;-90
2023/11/21 01:20:17;;;;;;;6.97;2.08;;;9.30;78.60;;;;;;4821484;29;20057;-90
2023/11/21 01:22:48;;;;;;;5.88;1.73;;;9.30;78.60;;;;;;4823845;29;20073;-90
2023/11/21 01:25:16;;;;;;;5.72;1.55;;;9.30;78.70;;;;;;4838642;29;20045;-90
2023/11/21 01:27:43;;;;;;;7.20;1.60;;;9.30;78.60;;;;;;4832145;29;20055;-90
2023/11/21 01:30:10;;;;;;;5.88;1.63;;;9.30;78.80;;;;;;4829824;29;20054;-90
2023/11/21 01:32:39;;;;;;;5.88;1.67;;;9.40;78.30;;;;;;4827391;29;20046;-89
2023/11/21 01:35:06;;;;;;;5.55;1.63;;;9.30;78.10;;;;;;4829164;29;20098;-90
2023/11/21 01:37:33;;;;;;;6.13;1.90;;;9.30;78.10;;;;;;4825740;29;21426;-90
2023/11/21 01:40:02;;;;;;;6.93;1.90;;;9.30;78.70;;;;;;4835206;29;20046;-90
2023/11/21 01:42:29;;;;;;;4.78;1.60;;;9.40;78.60;;;;;;4841634;29;20124;-90
2023/11/21 01:44:56;;;;;;;5.38;1.50;;;9.40;78.40;;;;;;4829155;29;20086;-90
2023/11/21 01:47:23;;;;;;;7.97;1.80;;;9.40;78.30;;;;;;4829339;29;20103;-90
2023/11/21 01:49:50;;;;;;;5.35;1.92;;;9.40;78.20;;;;;;4829262;29;20061;-90
2023/11/21 01:52:18;;;;;;;6.83;1.70;;;9.30;78.10;;;;;;4833311;29;20073;-90
2023/11/21 01:54:44;;;;;;;6.38;1.70;;;9.40;78.40;;;;;;4822161;29;20581;-90
2023/11/21 01:57:12;;;;;;;5.55;1.75;;;9.40;78.00;;;;;;4830450;29;20049;-90
2023/11/21 01:59:42;;;;;;;5.47;1.55;;;9.30;77.80;;;;;;4844520;29;20045;-90
2023/11/21 02:02:09;;;;;;;4.65;1.60;;;9.40;78.10;;;;;;4836069;29;20042;-90
2023/11/21 02:04:38;;;;;;;4.13;1.40;;;9.30;77.60;;;;;;4830418;29;20547;-91
2023/11/21 02:07:05;;;;;;;6.63;1.92;;;9.40;78.00;;;;;;4841317;29;20069;-91
2023/11/21 02:09:33;;;;;;;7.40;1.50;;;9.40;77.80;;;;;;4822962;29;20049;-92
2023/11/21 02:12:02;;;;;;;7.55;2.20;;;9.40;77.60;;;;;;4829032;29;20101;-91
2023/11/21 02:14:30;;;;;;;4.80;1.70;;;9.50;77.80;;;;;;4846456;29;20072;-91
2023/11/21 02:16:57;;;;;;;7.27;1.93;;;9.50;77.90;;;;;;4829110;29;20050;-90
2023/11/21 02:19:29;;;;;;;4.15;1.65;;;9.50;77.80;;;;;;4820661;29;20489;-91
2023/11/21 02:22:00;;;;;;;4.38;1.50;;;9.50;77.70;;;;;;4818910;29;20132;-91
2023/11/21 02:24:28;;;;;;;6.07;1.63;;;9.50;77.60;;;;;;4821800;29;20060;-90
2023/11/21 02:26:56;;;;;;;5.03;1.60;;;9.50;77.70;;;;;;4825061;29;20369;-90
2023/11/21 02:29:27;;;;;;;6.30;1.60;;;9.50;77.50;;;;;;4833348;29;20045;-91
2023/11/21 02:31:55;;;;;;;6.53;2.10;;;9.50;77.60;;;;;;4828419;29;20106;-90
2023/11/21 02:34:24;;;;;;;7.60;2.30;;;9.50;77.50;;;;;;4834200;29;20137;-91
2023/11/21 02:36:52;;;;;;;5.05;1.75;;;9.60;77.20;;;;;;4841110;29;20054;-90
2023/11/21 02:39:22;;;;;;;5.55;1.70;;;9.50;77.20;;;;;;4828543;29;20050;-90
2023/11/21 02:41:50;;;;;;;5.17;1.80;;;9.50;77.30;;;;;;4833546;29;20524;-92
2023/11/21 02:44:17;;;;;;;6.38;1.65;;;9.50;77.20;;;;;;4837815;29;20064;-92
2023/11/21 02:46:44;;;;;;;6.25;1.27;;;9.60;77.20;;;;;;4840895;29;20131;-91
2023/11/21 02:49:11;;;;;;;4.00;1.67;;;9.60;76.80;;;;;;4819875;29;20054;-91
2023/11/21 02:51:39;;;;;;;5.45;1.80;;;9.60;77.10;;;;;;4828440;29;20053;-91
2023/11/21 02:54:08;;;;;;;6.97;2.00;;;9.50;76.90;;;;;;4833364;29;20106;-91
2023/11/21 02:56:35;;;;;;;6.65;1.88;;;9.50;77.00;;;;;;4835677;29;20058;-91
2023/11/21 02:59:05;;;;;;;5.03;1.58;;;9.60;76.80;;;;;;4822455;29;20540;-91
2023/11/21 03:01:32;;;;;;;5.35;1.52;;;9.60;76.70;;;;;;4842255;29;20046;-91
2023/11/21 03:04:00;;;;;;;7.80;1.80;;;9.60;76.60;;;;;;4822091;29;20462;-90
2023/11/21 03:06:27;;;;;;;4.90;1.70;;;9.50;76.20;;;;;;4839299;29;20106;-90
2023/11/21 03:08:54;;;;;;;6.63;1.95;;;9.60;76.50;;;;;;4820317;29;20046;-91
2023/11/21 03:11:21;;;;;;;7.90;1.80;;;9.50;76.70;;;;;;4831842;29;20049;-90
2023/11/21 03:13:48;;;;;;;5.65;1.88;;;9.50;76.90;;;;;;4812796;29;20061;-91
2023/11/21 03:16:16;;;;;;;5.22;1.92;;;9.50;76.90;;;;;;4828867;29;20144;-90
2023/11/21 03:18:44;;;;;;;5.67;1.80;;;9.50;76.60;;;;;;4834610;29;20098;-91
2023/11/21 03:21:12;;;;;;;6.68;1.58;;;9.50;77.00;;;;;;4819359;29;20138;-91
2023/11/21 03:23:40;;;;;;;3.80;1.60;;;9.50;77.00;;;;;;4835581;29;20512;-91
2023/11/21 03:26:12;;;;;;;3.72;1.40;;;9.40;77.00;;;;;;4836563;29;20049;-92
2023/11/21 03:28:39;;;;;;;8.27;2.10;;;9.40;76.80;;;;;;4832140;29;20054;-91
2023/11/21 03:31:08;;;;;;;4.47;1.77;;;9.40;76.70;;;;;;4820396;29;20053;-91
2023/11/21 03:33:36;;;;;;;6.30;1.90;;;9.40;76.90;;;;;;4827602;29;20056;-91
2023/11/21 03:36:03;;;;;;;5.60;1.95;;;9.40;77.10;;;;;;4827545;29;20398;-91
2023/11/21 03:38:30;;;;;;;4.55;1.40;;;9.40;76.80;;;;;;4837385;29;20084;-90
2023/11/21 03:40:57;;;;;;;5.88;2.13;;;9.40;77.00;;;;;;4842839;29;20555;-90
2023/11/21 03:43:28;;;;;;;6.40;1.80;;;9.40;77.30;;;;;;4835279;29;20077;-91
2023/11/21 03:45:55;;;;;;;6.05;1.80;;;9.40;77.10;;;;;;4836273;29;20458;-91
2023/11/21 03:48:23;;;;;;;5.93;1.77;;;9.30;77.00;;;;;;4827600;29;20065;-91
2023/11/21 03:50:50;;;;;;;5.05;1.95;;;9.30;77.10;;;;;;4853066;29;20531;-91
2023/11/21 03:53:17;;;;;;;7.75;1.60;;;9.30;77.30;;;;;;4827380;29;20050;-90
2023/11/21 03:55:44;;;;;;;6.03;1.90;;;9.30;77.20;;;;;;4825735;29;20081;-91
2023/11/21 03:58:12;;;;;;;4.78;1.73;;;9.30;76.90;;;;;;4820535;29;20050;-90
2023/11/21 04:00:39;;;;;;;5.63;1.90;;;9.30;77.20;;;;;;4815678;29;20069;-90
2023/11/21 04:03:06;;;;;;;4.57;1.70;;;9.30;76.80;;;;;;4821377;29;20060;-91
2023/11/21 04:05:33;;;;;;;5.93;1.90;;;9.30;76.70;;;;;;4830794;29;20062;-90
2023/11/21 04:08:00;;;;;;;5.10;1.60;;;9.30;76.70;;;;;;4817187;29;20097;-90
2023/11/21 04:10:28;;;;;;;4.60;1.60;;;9.30;76.60;;;;;;4817421;29;20056;-90
2023/11/21 04:12:55;;;;;;;4.95;1.63;;;9.40;76.70;;;;;;4831226;29;20054;-90
2023/11/21 04:15:23;;;;;;;7.35;2.08;;;9.40;76.40;;;;;;4834171;29;20041;-90
2023/11/21 04:17:50;;;;;;;6.63;1.90;;;9.40;76.60;;;;;;4822656;29;20113;-89
2023/11/21 04:20:17;;;;;;;6.30;1.87;;;9.40;76.30;;;;;;4838540;29;20041;-89
2023/11/21 04:22:44;;;;;;;3.78;1.50;;;9.40;76.60;;;;;;4838880;29;20061;-89
2023/11/21 04:25:14;;;;;;;6.78;2.10;;;9.40;76.40;;;;;;4827712;29;20184;-90
2023/11/21 04:27:44;;;;;;;5.13;1.60;;;9.40;76.40;;;;;;4831834;29;20454;-90
2023/11/21 04:30:13;;;;;;;6.38;1.95;;;9.30;76.10;;;;;;4830683;29;20053;-90
2023/11/21 04:32:40;;;;;;;6.80;1.70;;;9.30;76.60;;;;;;4836307;29;20456;-90
2023/11/21 04:35:08;;;;;;;5.18;1.70;;;9.40;76.70;;;;;;4821600;29;20061;-90
2023/11/21 04:37:36;;;;;;;4.90;2.17;;;9.40;76.60;;;;;;4843691;29;20049;-90
2023/11/21 04:40:06;;;;;;;7.32;1.88;;;9.40;76.70;;;;;;4833797;29;20046;-90
2023/11/21 04:42:36;;;;;;;8.95;2.10;;;9.30;77.00;;;;;;4827513;29;20508;-90
2023/11/21 04:45:11;;;;;;;8.73;2.00;;;9.30;77.50;;;;;;4829008;29;20058;-90
2023/11/21 04:47:46;;;;;;;5.15;1.95;;;9.20;78.10;;;;;;4829939;29;20106;-90
2023/11/21 04:50:13;;;;;;;5.50;2.03;;;9.30;78.70;;;;;;4830641;29;20053;-90
2023/11/21 04:52:40;;;;;;;6.72;2.13;;;9.40;78.70;;;;;;4830328;29;20118;-90
2023/11/21 04:55:09;;;;;;;5.50;2.20;;;9.40;78.80;;;;;;4845156;29;20050;-91
2023/11/21 04:57:38;;;;;;;5.57;2.10;;;9.40;78.70;;;;;;4818183;29;20050;-90
2023/11/21 05:00:05;;;;;;;6.40;2.22;;;9.30;78.20;;;;;;4830165;29;20056;-90
2023/11/21 05:02:36;;;;;;;6.78;2.35;;;9.30;78.30;;;;;;4822285;29;20073;-91
2023/11/21 05:05:05;;;;;;;5.28;2.50;;;9.30;78.30;;;;;;4815095;29;20576;-90
2023/11/21 05:07:35;;;;;;;10.43;5.70;;;9.30;78.30;;;;;;4815094;29;20074;-90
2023/11/21 05:10:11;;;;;;;19.10;16.33;;;9.20;78.30;;;;;;4809130;29;20115;-90
2023/11/21 05:12:39;;;;;;;16.55;13.10;;;9.10;78.40;;;;;;4803149;29;20062;-90
2023/11/21 05:15:09;;;;;;;9.50;7.47;;;9.10;78.60;;;;;;4798594;29;20050;-90
2023/11/21 05:17:38;;;;;;;11.32;4.85;;;9.20;78.70;;;;;;4812292;29;20056;-90
2023/11/21 05:20:08;;;;;;;7.18;2.63;;;9.20;78.70;;;;;;4812623;29;20053;-90
2023/11/21 05:22:36;;;;;;;11.40;6.80;;;9.20;78.40;;;;;;4804763;29;20046;-90
2023/11/21 05:25:03;;;;;;;10.02;5.25;;;9.20;78.90;;;;;;4809816;29;20179;-90
2023/11/21 05:27:30;;;;;;;7.28;3.20;;;9.30;78.90;;;;;;4804138;29;20413;-90
2023/11/21 05:29:57;;;;;;;12.57;5.25;;;9.30;78.80;;;;;;4796355;29;20054;-90
2023/11/21 05:32:25;;;;;;;12.18;7.05;;;9.30;78.80;;;;;;4796627;29;20061;-90
2023/11/21 05:34:52;;;;;;;11.97;4.03;;;9.20;79.10;;;;;;4808302;29;20049;-90
2023/11/21 05:37:19;;;;;;;10.18;3.13;;;9.10;79.30;;;;;;4814645;29;20046;-90
2023/11/21 05:39:46;;;;;;;13.85;4.63;;;9.00;79.20;;;;;;4814576;29;20050;-89
2023/11/21 05:42:13;;;;;;;8.65;3.90;;;9.00;79.40;;;;;;4829518;29;20054;-91
2023/11/21 05:44:43;;;;;;;16.45;8.85;;;9.00;79.20;;;;;;4817773;29;20411;-90
2023/11/21 05:47:10;;;;;;;11.93;4.30;;;9.00;79.50;;;;;;4796309;29;20096;-90
2023/11/21 05:49:37;;;;;;;10.07;4.35;;;9.00;79.80;;;;;;4811334;29;20498;-91
2023/11/21 05:52:05;;;;;;;9.88;6.20;;;9.10;79.70;;;;;;4805920;29;20524;-90
2023/11/21 05:54:33;;;;;;;9.27;3.95;;;9.10;79.30;;;;;;4814206;29;20077;-90
2023/11/21 05:57:00;;;;;;;13.63;7.68;;;9.10;78.90;;;;;;4813647;29;20544;-90
2023/11/21 05:59:27;;;;;;;12.87;6.90;;;9.20;78.60;;;;;;4802172;29;20064;-89
2023/11/21 06:01:54;;;;;;;10.18;5.25;;;9.10;78.20;;;;;;4808955;29;20060;-90
2023/11/21 06:04:23;;;;;;;13.75;8.18;;;9.10;78.30;;;;;;4810007;29;20075;-90
2023/11/21 06:06:54;;;;;;;11.80;4.60;;;9.10;78.10;;;;;;4816558;29;20149;-90
2023/11/21 06:09:22;;;;;;;7.95;3.30;;;9.00;78.10;;;;;;4828836;29;20046;-89
2023/11/21 06:11:49;;;;;;;8.60;3.70;;;9.00;78.30;;;;;;4829841;29;20057;-90
2023/11/21 06:14:17;;;;;;;8.30;3.70;;;9.00;78.30;;;;;;4830766;29;20500;-90
2023/11/21 06:16:45;;;;;;;9.07;3.80;;;9.10;78.40;;;;;;4828801;29;20046;-90
2023/11/21 06:19:12;;;;;;;13.52;5.22;;;9.20;78.30;;;;;;4829046;29;20341;-91
2023/11/21 06:21:39;;;;;;;7.57;3.25;;;9.20;78.10;;;;;;4829851;29;20056;-90
2023/11/21 06:24:07;;;;;;;8.63;4.20;;;9.30;77.80;;;;;;4845419;29;20072;-90
2023/11/21 06:26:34;;;;;;;10.23;3.50;;;9.30;77.60;;;;;;4829687;29;20144;-90
2023/11/21 06:29:03;;;;;;;7.93;3.50;;;9.20;77.40;;;;;;4813951;29;20057;-91
2023/11/21 06:31:31;;;;;;;10.13;4.50;;;9.20;78.00;;;;;;4829335;29;20058;-91
2023/11/21 06:33:59;;;;;;;12.85;4.50;;;9.20;78.20;;;;;;4839063;29;20080;-90
2023/11/21 06:36:26;;;;;;;11.63;4.53;;;9.20;78.20;;;;;;4829058;29;20489;-91
2023/11/21 06:38:53;;;;;;;9.98;3.85;;;9.30;78.40;;;;;;4814419;29;20052;-91
2023/11/21 06:41:20;;;;;;;11.38;4.32;;;9.30;78.10;;;;;;4832395;29;20057;-91
2023/11/21 06:43:47;;;;;;;10.48;3.72;;;9.40;78.20;;;;;;4841811;29;20041;-90
2023/11/21 06:46:15;;;;;;;13.88;4.38;;;9.20;77.60;;;;;;4829074;29;20054;-90
2023/11/21 06:48:45;;;;;;;9.50;4.20;;;9.20;77.80;;;;;;4841024;29;20077;-90
2023/11/21 06:51:13;;;;;;;8.75;3.47;;;9.30;77.80;;;;;;4836435;29;20058;-91
2023/11/21 06:53:40;;;;;;;9.80;3.40;;;9.30;77.80;;;;;;4824477;29;20053;-91
2023/11/21 06:56:17;;;;;;;9.07;3.90;;;;;;;;;;4814861;29;20513;-91
2023/11/21 06:58:49;;;;;;;9.48;3.90;;;9.30;77.70;;;;;;4830571;29;20413;-91
2023/11/21 07:01:16;;;;;;;9.97;3.63;;;9.20;78.10;;;;;;4815185;29;20049;-91
2023/11/21 07:03:43;;;;;;;10.70;3.38;;;9.20;78.00;;;;;;4830027;29;20042;-90
2023/11/21 07:06:11;;;;;;;9.23;4.10;;;9.20;77.90;;;;;;4814643;29;20108;-91
2023/11/21 07:08:40;;;;;;;9.57;3.40;;;9.20;78.00;;;;;;4829644;29;20049;-91
2023/11/21 07:11:07;;;;;;;9.93;4.28;;;9.30;77.70;;;;;;4825028;29;20049;-91
2023/11/21 07:13:34;;;;;;;7.47;3.23;;;9.30;77.90;;;;;;4830208;29;20136;-91
2023/11/21 07:16:01;;;;;;;10.60;3.42;;;9.30;77.60;;;;;;4829432;29;20084;-90
2023/11/21 07:18:29;;;;;;;7.50;3.03;;;;;;;;;;4823946;29;20055;-91
2023/11/21 07:20:56;;;;;;;12.90;6.40;;;9.30;77.20;;;;;;4846100;29;20078;-91
2023/11/21 07:23:23;;;;;;;9.15;3.42;;;9.40;77.10;;;;;;4846845;29;20403;-91
2023/11/21 07:25:50;;;;;;;6.80;3.10;;;9.40;77.00;;;;;;4846661;29;20064;-91
2023/11/21 07:28:17;;;;;;;10.73;3.75;;;9.50;77.40;;;;;;4825988;29;20412;-91
2023/11/21 07:30:44;;;;;;;9.18;4.13;;;9.50;77.00;;;;;;4815755;29;20053;-91
2023/11/21 07:33:11;;;;;;;13.90;8.27;;;9.60;77.00;;;;;;4843057;29;20543;-91
2023/11/21 07:35:38;;;;;;;11.80;5.65;;;9.70;77.20;;;;;;4820953;29;20568;-91
2023/11/21 07:38:05;;;;;;;11.37;5.63;;;9.70;77.10;;;;;;4834677;29;20110;-91
2023/11/21 07:40:32;;;;;;;12.60;6.47;;;9.70;77.30;;;;;;4828085;29;20042;-91
2023/11/21 07:42:59;;;;;;;8.25;3.10;;;9.80;77.00;;;;;;4828757;29;20084;-92
2023/11/21 07:45:27;;;;;;;8.13;3.22;;;9.90;76.50;;;;;;4843099;29;20145;-91
2023/11/21 07:47:55;;;;;;;9.23;3.60;;;9.90;76.30;;;;;;4843135;29;20053;-91
2023/11/21 07:50:23;;;;;;;8.87;3.40;;;;;;;;;;4833588;29;20501;-91
2023/11/21 07:52:50;;;;;;;9.88;3.38;;;9.90;76.10;;;;;;4828008;29;20070;-92
2023/11/21 07:55:18;;;;;;;7.03;3.10;;;10.00;76.30;;;;;;4841677;29;20050;-91
2023/11/21 07:57:45;;;;;;;9.23;3.13;;;10.00;76.30;;;;;;4840626;29;20049;-91
2023/11/21 08:00:15;;;;;;;8.10;3.13;;;10.00;75.60;;;;;;4817697;29;20053;-91
2023/11/21 08:02:42;;;;;;;7.97;2.90;;;10.00;75.20;;;;;;4836825;29;20488;-91
2023/11/21 08:05:10;;;;;;;6.85;2.92;;;10.10;75.00;;;;;;4823334;29;20460;-91
2023/11/21 08:07:50;;;;;;;6.40;2.38;;;10.10;74.80;;;;;;4820774;29;20513;-91
2023/11/21 08:10:17;;;;;;;7.22;3.17;;;10.10;75.00;;;;;;4828354;29;20069;-91
2023/11/21 08:12:45;;;;;;;8.88;4.00;;;10.10;75.70;;;;;;4820386;29;20075;-91
2023/11/21 08:15:12;;;;;;;8.57;3.40;;;10.00;75.90;;;;;;4812647;29;20049;-91
2023/11/21 08:17:39;;;;;;;9.98;3.58;;;10.00;75.70;;;;;;4822952;29;20045;-91
2023/11/21 08:20:08;;;;;;;10.00;3.50;;;10.00;76.10;;;;;;4848967;29;20149;-91
2023/11/21 08:22:36;;;;;;;6.93;2.60;;;10.00;75.90;;;;;;4820712;29;20041;-91
2023/11/21 08:25:04;;;;;;;10.23;3.22;;;10.00;76.30;;;;;;4815960;29;20176;-91
2023/11/21 08:27:31;;;;;;;7.83;3.07;;;10.00;75.70;;;;;;4841023;29;20064;-91
2023/11/21 08:29:58;;;;;;;6.65;2.85;;;10.00;75.70;;;;;;4840340;29;20122;-91
2023/11/21 08:32:25;;;;;;;6.13;2.35;;;10.10;75.40;;;;;;4812466;29;20054;-91
2023/11/21 08:34:53;;;;;;;7.38;3.00;;;10.00;75.40;;;;;;4819954;29;20057;-91
2023/11/21 08:37:20;;;;;;;6.25;2.58;;;10.00;75.40;;;;;;4822557;29;20046;-91
2023/11/21 08:39:52;;;;;;;7.90;2.73;;;10.00;75.30;;;;;;4828691;29;20110;-91
2023/11/21 08:42:19;;;;;;;7.72;3.17;;;10.00;75.00;;;;;;4852989;29;20050;-91
2023/11/21 08:44:46;;;;;;;8.18;3.95;;;10.00;74.90;;;;;;4828215;29;20447;-91
2023/11/21 08:47:14;;;;;;;8.60;5.32;;;10.10;74.70;;;;;;4829959;29;20077;-91
2023/11/21 08:49:41;;;;;;;8.27;4.47;;;10.20;75.00;;;;;;4829757;29;20045;-91
2023/11/21 08:52:08;;;;;;;8.37;3.87;;;10.20;75.20;;;;;;4834953;29;20425;-91
2023/11/21 08:54:36;;;;;;;8.05;3.55;;;10.20;74.60;;;;;;4829855;29;20050;-91
2023/11/21 08:57:03;;;;;;;15.63;9.82;;;10.20;75.20;;;;;;4819802;29;20045;-91
2023/11/21 08:59:30;;;;;;;9.10;5.75;;;10.20;75.40;;;;;;4830174;29;20046;-91
2023/11/21 09:01:57;;;;;;;25.63;18.27;;;10.20;75.30;;;;;;4827006;29;20054;-91
2023/11/21 09:04:25;;;;;;;12.37;6.73;;;10.30;74.80;;;;;;4834619;29;20053;-91
2023/11/21 09:06:52;;;;;;;33.53;18.08;;;10.30;75.00;;;;;;4834925;29;20101;-91
2023/11/21 09:09:19;;;;;;;13.18;7.35;;;10.20;74.90;;;;;;4839767;29;20053;-91
2023/11/21 09:11:49;;;;;;;8.90;3.33;;;10.40;74.90;;;;;;4843605;29;20054;-91
2023/11/21 09:14:17;;;;;;;7.95;3.17;;;10.40;74.70;;;;;;4834034;29;20058;-91
2023/11/21 09:16:45;;;;;;;7.03;2.83;;;10.30;74.20;;;;;;4842645;29;20045;-91
2023/11/21 09:19:14;;;;;;;7.70;3.00;;;10.40;74.60;;;;;;4826301;29;20137;-91
2023/11/21 09:21:41;;;;;;;7.90;2.75;;;10.40;74.50;;;;;;4841691;29;20060;-91
2023/11/21 09:24:09;;;;;;;6.97;3.30;;;10.40;73.90;;;;;;4826141;29;20053;-91
2023/11/21 09:26:36;;;;;;;9.07;3.90;;;10.50;74.10;;;;;;4825008;29;20086;-91
2023/11/21 09:29:03;;;;;;;8.67;3.20;;;10.50;74.20;;;;;;4823722;29;20142;-91
2023/11/21 09:31:31;;;;;;;7.93;2.88;;;10.50;74.10;;;;;;4841418;29;20061;-91
2023/11/21 09:33:58;;;;;;;6.45;2.30;;;10.40;73.90;;;;;;4832444;29;20061;-91
2023/11/21 09:36:27;;;;;;;6.13;2.92;;;10.50;74.00;;;;;;4829597;29;20049;-90
2023/11/21 09:38:55;;;;;;;8.73;2.88;;;10.50;74.40;;;;;;4829496;29;20079;-91
2023/11/21 09:41:39;;;;;;;7.40;2.67;;;10.50;74.40;;;;;;4829662;29;20049;-91
2023/11/21 09:44:11;;;;;;;8.15;2.67;;;10.50;74.00;;;;;;4819020;29;20045;-91
2023/11/21 09:46:42;;;;;;;8.80;3.53;;;10.50;73.60;;;;;;4842512;29;20141;-91
2023/11/21 09:49:12;;;;;;;7.97;3.03;;;10.40;73.80;;;;;;4834615;29;20072;-90
2023/11/21 09:51:43;;;;;;;9.50;3.47;;;10.40;74.00;;;;;;4844943;29;20501;-91
2023/11/21 09:54:11;;;;;;;10.13;3.80;;;10.40;73.70;;;;;;4826492;29;20579;-91
2023/11/21 09:56:38;;;;;;;7.00;2.90;;;10.40;74.10;;;;;;4821946;29;20128;-90
2023/11/21 09:59:08;;;;;;;7.88;2.90;;;10.50;74.00;;;;;;4843151;29;20129;-91
2023/11/21 10:01:42;;;;;;;8.38;3.10;;;10.50;73.80;;;;;;4822062;29;20054;-91
2023/11/21 10:04:12;;;;;;;8.48;3.60;;;10.40;73.50;;;;;;4842752;29;20057;-91
2023/11/21 10:06:45;;;;;;;15.40;7.27;;;10.40;73.20;;;;;;4826473;29;20505;-90
2023/11/21 10:09:15;;;;;;;12.93;7.35;;;10.30;73.90;;;;;;4831795;29;20053;-91
2023/11/21 10:11:43;;;;;;;8.93;3.40;;;10.30;73.90;;;;;;4821733;29;20054;-90
2023/11/21 10:14:12;;;;;;;7.78;3.38;;;10.40;73.60;;;;;;4821816;29;20416;-91
2023/11/21 10:16:41;;;;;;;8.10;3.45;;;10.40;73.20;;;;;;4840032;29;20049;-91
2023/11/21 10:19:10;;;;;;;8.53;3.63;;;10.40;73.50;;;;;;4832324;29;20071;-91
2023/11/21 10:21:39;;;;;;;8.60;4.03;;;10.40;73.40;;;;;;4835640;29;20042;-90
2023/11/21 10:24:07;;;;;;;7.80;3.53;;;10.50;74.10;;;;;;4822942;29;20446;-90
2023/11/21 10:26:35;;;;;;;7.07;3.50;;;10.50;74.60;;;;;;4824953;29;20054;-91
2023/11/21 10:29:18;;;;;;;10.50;4.97;;;10.60;73.30;;;;;;4825846;29;20170;-91
2023/11/21 10:31:45;;;;;;;13.37;7.03;;;10.70;72.40;;;;;;4840635;29;20536;-91
2023/11/21 10:34:20;;;;;;;28.25;14.05;;;10.70;72.10;;;;;;4828596;29;20053;-91
2023/11/21 10:36:48;;;;;;;11.20;4.75;;;10.80;72.30;;;;;;4819785;29;20053;-91
2023/11/21 10:39:23;;;;;;;7.15;3.30;;;11.00;71.80;;;;;;4830535;29;20396;-92
2023/11/21 10:41:51;;;;;;;8.43;4.32;;;11.00;71.50;;;;;;4829236;29;20086;-91
2023/11/21 10:44:22;;;;;;;9.33;3.80;;;11.00;72.40;;;;;;4837500;29;20106;-91
2023/11/21 10:46:56;;;;;;;8.85;3.78;;;11.00;71.30;;;;;;4834092;29;20075;-91
2023/11/21 10:49:25;;;;;;;7.65;2.65;;;11.00;70.90;;;;;;4816954;29;20058;-91
2023/11/21 10:51:56;;;;;;;8.75;4.00;;;10.90;70.30;;;;;;4826106;29;20404;-91
2023/11/21 10:54:27;;;;;;;9.02;4.72;;;10.90;70.40;;;;;;4821874;29;20129;-91
2023/11/21 10:57:01;;;;;;;7.90;2.77;;;10.90;70.20;;;;;;4838998;29;20150;-91
2023/11/21 10:59:31;;;;;;;8.35;2.92;;;11.00;70.30;;;;;;4817922;29;20053;-90
2023/11/21 11:02:03;;;;;;;7.32;3.63;;;11.00;70.00;;;;;;4844460;29;20140;-91
2023/11/21 11:04:31;;;;;;;8.98;3.13;;;11.00;70.60;;;;;;4828694;29;20056;-90
2023/11/21 11:07:03;;;;;;;9.07;3.10;;;11.00;70.60;;;;;;4820747;29;20053;-90
2023/11/21 11:09:33;;;;;;;7.83;2.73;;;10.90;70.80;;;;;;4828493;29;20585;-90
2023/11/21 11:12:04;;;;;;;11.45;3.72;;;10.90;70.50;;;;;;4823641;29;20519;-90
2023/11/21 11:14:32;;;;;;;7.63;3.20;;;10.90;70.80;;;;;;4837018;29;20413;-91
2023/11/21 11:17:01;;;;;;;8.35;2.83;;;10.90;70.10;;;;;;4824427;29;20053;-91
2023/11/21 11:19:29;;;;;;;7.85;3.17;;;10.90;70.60;;;;;;4822972;29;20061;-91
2023/11/21 11:22:14;;;;;;;6.70;2.40;;;11.00;70.60;;;;;;4824142;29;20501;-91
2023/11/21 11:25:19;;;;;;;7.28;2.42;;;11.00;69.70;;;;;;4819894;29;20486;-91
2023/11/21 11:28:11;;;;;;;6.82;2.40;;;10.80;68.10;;;;;;4840243;29;20136;-90
2023/11/21 11:31:03;;;;;;;7.28;2.38;;;10.80;69.90;;;;;;4835556;29;20141;-90
2023/11/21 11:33:53;;;;;;;9.00;3.10;;;10.70;69.30;;;;;;4836071;29;20053;-90
2023/11/21 11:36:26;;;;;;;8.67;2.80;;;10.70;70.00;;;;;;4825771;29;20057;-91
2023/11/21 11:38:55;;;;;;;7.93;2.55;;;10.60;69.80;;;;;;4834139;29;20049;-91
2023/11/21 11:41:27;;;;;;;6.82;2.60;;;10.60;70.60;;;;;;4827709;29;20136;-91
2023/11/21 11:43:54;;;;;;;6.75;2.70;;;10.60;70.40;;;;;;4844609;29;20106;-90
2023/11/21 11:46:45;;;;;;;6.80;2.47;;;10.70;70.80;;;;;;4834165;29;20484;-91
2023/11/21 11:49:27;;;;;;;7.63;2.73;;;10.70;69.90;;;;;;4829781;29;20567;-91
2023/11/21 11:52:32;;;;;;;8.85;3.00;;;10.80;70.70;;;;;;4833644;29;20082;-91
2023/11/21 11:55:00;;;;;;;8.13;3.10;;;10.80;70.40;;;;;;4832764;29;20085;-91
2023/11/21 11:57:34;;;;;;;9.18;3.22;;;10.80;70.20;;;;;;4838274;29;20056;-91
2023/11/21 12:00:24;;;;;;;8.75;3.80;;;10.80;70.10;;;;;;4813021;29;20196;-91
2023/11/21 12:02:53;;;;;;;7.97;3.10;;;10.80;70.80;;;;;;4813831;29;20441;-91
2023/11/21 12:05:23;;;;;;;9.18;3.78;;;10.90;70.70;;;;;;4827744;29;20050;-91
2023/11/21 12:07:57;;;;;;;8.05;3.22;;;10.90;69.80;;;;;;4841799;29;20053;-91
2023/11/21 12:10:29;;;;;;;11.32;2.97;;;10.90;69.70;;;;;;4827781;29;20058;-91
2023/11/21 12:12:59;;;;;;;8.02;3.10;;;11.00;69.40;;;;;;4812534;29;20061;-91
2023/11/21 12:15:30;;;;;;;10.17;3.50;;;11.00;70.20;;;;;;4817396;29;20564;-91
2023/11/21 12:17:59;;;;;;;8.48;2.88;;;11.00;70.00;;;;;;4846241;29;20076;-91
2023/11/21 12:20:27;;;;;;;8.52;2.95;;;11.00;69.80;;;;;;4826741;29;20041;-91
2023/11/21 12:22:55;;;;;;;9.25;3.90;;;11.00;70.30;;;;;;4839346;29;20066;-89
2023/11/21 12:25:27;;;;;;;8.60;3.28;;;11.00;69.80;;;;;;4824810;29;20050;-91
2023/11/21 12:27:54;;;;;;;7.97;3.33;;;10.80;69.90;;;;;;4815829;29;20046;-90
2023/11/21 12:30:23;;;;;;;10.02;3.53;;;10.80;70.10;;;;;;4813587;29;20050;-91
2023/11/21 12:32:55;;;;;;;22.27;8.77;;;10.70;71.00;;;;;;4836250;29;20061;-91
2023/11/21 12:35:26;;;;;;;6.75;2.58;;;10.70;71.00;;;;;;4820412;29;20060;-91
2023/11/21 12:37:55;;;;;;;4.90;1.90;;;10.50;70.60;;;;;;4819533;29;20098;-91
2023/11/21 12:40:22;;;;;;;4.80;1.90;;;10.20;71.70;;;;;;4837636;29;20049;-91
2023/11/21 12:42:55;;;;;;;4.32;1.70;;;9.90;72.60;;;;;;4828911;29;20097;-91
2023/11/21 12:45:27;;;;;;;5.50;1.52;;;9.70;73.10;;;;;;4845242;29;20042;-90
2023/11/21 12:47:59;;;;;;;3.97;1.73;;;9.50;73.20;;;;;;4830522;29;20073;-91
2023/11/21 12:50:28;;;;;;;4.82;1.70;;;9.50;74.10;;;;;;4837377;29;20053;-91
2023/11/21 12:53:08;;;;;;;5.40;1.90;;;9.40;74.60;;;;;;4826521;29;20058;-90
2023/11/21 12:55:39;;;;;;;5.25;2.25;;;9.40;75.60;;;;;;4831220;29;20106;-90
2023/11/21 12:58:09;;;;;;;7.30;3.00;;;9.40;75.80;;;;;;4830125;29;20088;-90
2023/11/21 13:00:59;;;;;;;8.23;2.90;;;9.50;76.00;;;;;;4838731;29;20132;-91
2023/11/21 13:03:26;;;;;;;7.72;3.42;;;9.50;76.30;;;;;;4834200;29;20104;-90